This is the latest recevied weather packets stored in our database for station/object W0BJ. If no packets are shown the sender has not sent any weather packets the latest 1 day(s).
| Time | Temp. | Humidity | Pressure | Rain* | Wind** | Luminosity | Snow |
|---|---|---|---|---|---|---|---|
| 1836274687 | 22.78° C | 83% | 1019.2 hPa | 0 mm | 0 m/s | - | - |
| 1836274507 | 22.78° C | 83% | 1019.2 hPa | 0 mm | 0 m/s | - | - |
| 1836274357 | 22.22° C | 84% | 1019.1 hPa | 0 mm | 0 m/s | - | - |
| 1836273907 | 22.78° C | 82% | 1019.3 hPa | 0 mm | 0 m/s | - | - |
| 1778058663 | 8.89° C | 94% | 1015.9 hPa | 0 mm | 0 m/s | - | - |
| 1778058497 | 8.89° C | 94% | 1015.7 hPa | 0 mm | 0 m/s | - | - |
| 1778058065 | 8.89° C | 94% | 1015.7 hPa | 0 mm | 0 m/s | - | - |
| 1778057599 | 8.33° C | 94% | 1015.8 hPa | 0 mm | 0 m/s | - | - |
| 1778057465 | 8.89° C | 94% | 1015.9 hPa | 0 mm | 0 m/s | - | - |
| 1778056864 | 8.33° C | 94% | 1015.7 hPa | 0 mm | 0 m/s | - | - |
| 1778056698 | 8.33° C | 94% | 1015.6 hPa | 0 mm | 0 m/s | - | - |
| 1778056264 | 8.33° C | 94% | 1015.6 hPa | 0 mm | 0 m/s | - | - |
| 1778055797 | 8.33° C | 93% | 1015.6 hPa | 0.25 mm | 0 m/s | - | - |
| 1778055663 | 8.33° C | 94% | 1015.6 hPa | 0.25 mm | 0 m/s | - | - |
| 1778055063 | 8.33° C | 93% | 1015.6 hPa | 0.51 mm | 0 m/s | - | - |
| 1778054899 | 8.33° C | 93% | 1015.7 hPa | 0.51 mm | 0 m/s | - | - |
| 1778054464 | 8.33° C | 93% | 1015.3 hPa | 0.51 mm | 0 m/s | - | - |
| 1778053998 | 8.33° C | 93% | 1015.3 hPa | 0.51 mm | 0 m/s | - | - |
| 1778053864 | 8.33° C | 93% | 1015.3 hPa | 0.51 mm | 0 m/s | - | - |
| 1778053747 | 8.33° C | 93% | 1015.3 hPa | 0.51 mm | 1.34 m/s, 307° | - | - |
| 1778053147 | 8.33° C | 93% | 1015.4 hPa | 0.51 mm | 0 m/s | - | - |
| 1778053097 | 8.33° C | 93% | 1015.3 hPa | 0.51 mm | 0 m/s | - | - |
| 1778052547 | 8.33° C | 93% | 1015.3 hPa | 0.76 mm | 0 m/s | - | - |
| 1778052198 | 8.33° C | 93% | 1015.6 hPa | 0.51 mm | 0 m/s | - | - |
| 1778051946 | 8.33° C | 93% | 1015.6 hPa | 0.51 mm | 0 m/s | - | - |
* Rain latest hour (hover to see other rain measurements)
** Current wind speed in m/s (hover to see current wind gust speed)